Time;durP1;ratioP1;P1;durP2;ratioP2;P2;SDS_P1;SDS_P2;PMS_P1;PMS_P2;Temp;Humidity;BMP_temperature;BMP_pressure;BME280_temperature;BME280_humidity;BME280_pressure;Samples;Min_cycle;Max_cycle;Signal;HPM_P1;HPM_P2
2021/09/13 00:00:21;;;;;;;3.50;2.00;;;23.80;60.70;;;;;;6266674;28;20532;-72
2021/09/13 00:03:21;;;;;;;2.47;1.77;;;23.80;60.70;;;;;;6249561;28;20025;-72
2021/09/13 00:06:22;;;;;;;2.97;1.77;;;23.80;60.70;;;;;;6265777;28;20032;-72
2021/09/13 00:09:23;;;;;;;3.33;1.92;;;23.80;60.70;;;;;;6266996;28;20035;-72
2021/09/13 00:12:23;;;;;;;2.60;1.80;;;23.80;60.70;;;;;;6266437;28;20147;-72
2021/09/13 00:15:24;;;;;;;3.40;2.03;;;23.80;60.70;;;;;;6249002;28;20043;-72
2021/09/13 00:18:25;;;;;;;2.70;1.70;;;23.80;60.70;;;;;;6266190;28;20465;-72
2021/09/13 00:21:25;;;;;;;3.22;1.88;;;23.80;60.70;;;;;;6248862;28;20475;-72
2021/09/13 00:24:26;;;;;;;3.28;1.80;;;23.80;60.70;;;;;;6249263;28;20025;-72
2021/09/13 00:27:26;;;;;;;3.03;1.70;;;23.80;60.70;;;;;;6266626;28;20507;-72
2021/09/13 00:30:27;;;;;;;2.72;1.70;;;23.80;60.70;;;;;;6266582;28;20437;-72
2021/09/13 00:33:28;;;;;;;2.67;1.77;;;23.80;60.70;;;;;;6266644;28;20524;-72
2021/09/13 00:36:28;;;;;;;2.97;1.88;;;23.80;60.70;;;;;;6266188;28;20060;-72
2021/09/13 00:39:29;;;;;;;2.33;1.60;;;23.80;60.70;;;;;;6247895;28;20024;-72
2021/09/13 00:42:33;;;;;;;2.50;1.45;;;23.80;60.70;;;;;;6248105;28;20771;-72
2021/09/13 00:45:33;;;;;;;2.05;1.52;;;23.80;60.70;;;;;;6266424;28;20082;-72
2021/09/13 00:48:34;;;;;;;1.92;1.48;;;23.80;60.70;;;;;;6265591;28;20029;-72
2021/09/13 00:51:34;;;;;;;2.63;1.60;;;23.80;60.70;;;;;;6247889;28;20028;-72
2021/09/13 00:54:35;;;;;;;1.88;1.30;;;23.80;60.80;;;;;;6265893;28;20051;-72
2021/09/13 00:57:36;;;;;;;3.17;1.85;;;23.80;60.80;;;;;;6265736;28;20497;-72
2021/09/13 01:00:36;;;;;;;2.35;1.50;;;23.80;60.70;;;;;;6247813;28;20083;-72
2021/09/13 01:03:37;;;;;;;2.13;1.50;;;23.80;60.70;;;;;;6248008;28;20031;-72
2021/09/13 01:06:38;;;;;;;2.75;1.50;;;23.80;60.70;;;;;;6247853;28;20024;-72
2021/09/13 01:09:38;;;;;;;2.97;1.45;;;23.80;60.70;;;;;;6265485;28;20530;-72
2021/09/13 01:12:39;;;;;;;1.55;1.20;;;23.80;60.70;;;;;;6247425;28;20029;-72
2021/09/13 01:15:40;;;;;;;2.20;1.40;;;23.80;60.70;;;;;;6266003;28;20033;-72
2021/09/13 01:18:41;;;;;;;2.50;1.38;;;23.80;60.70;;;;;;6265999;28;20017;-71
2021/09/13 01:21:44;;;;;;;1.83;1.27;;;23.70;60.60;;;;;;6265373;28;20029;-73
2021/09/13 01:24:46;;;;;;;2.13;1.40;;;23.80;60.70;;;;;;6265024;28;20033;-72
2021/09/13 01:27:47;;;;;;;1.42;1.23;;;23.80;60.70;;;;;;6269425;28;20033;-72
2021/09/13 01:30:47;;;;;;;2.42;1.27;;;23.80;60.70;;;;;;6255376;28;20115;-72
2021/09/13 01:33:48;;;;;;;1.85;1.23;;;23.80;60.70;;;;;;6273408;28;20033;-72
2021/09/13 01:36:49;;;;;;;1.95;1.20;;;23.80;60.70;;;;;;6255821;28;20029;-72
2021/09/13 01:39:49;;;;;;;1.67;1.20;;;23.80;60.80;;;;;;6254860;28;20566;-72
2021/09/13 01:42:50;;;;;;;2.13;1.50;;;23.80;60.70;;;;;;6255675;28;20017;-72
2021/09/13 01:45:50;;;;;;;2.00;1.50;;;23.80;60.70;;;;;;6255162;28;20032;-72
2021/09/13 01:48:51;;;;;;;2.10;1.27;;;23.80;60.70;;;;;;6255244;28;20031;-72
2021/09/13 01:51:51;;;;;;;1.52;1.15;;;23.80;60.70;;;;;;6272883;28;20025;-72
2021/09/13 01:54:52;;;;;;;1.20;1.10;;;23.80;60.70;;;;;;6255546;28;20025;-72
2021/09/13 01:57:52;;;;;;;1.40;1.10;;;23.80;61.60;;;;;;6273312;28;20043;-72
2021/09/13 02:00:54;;;;;;;1.27;1.08;;;23.80;60.70;;;;;;6273006;28;20104;-72
2021/09/13 02:03:54;;;;;;;1.33;0.90;;;23.80;60.70;;;;;;6255024;28;20021;-72
2021/09/13 02:06:55;;;;;;;1.20;1.02;;;23.80;60.70;;;;;;6255183;28;20394;-72
2021/09/13 02:09:55;;;;;;;2.13;1.20;;;23.80;60.70;;;;;;6272990;28;20079;-72
2021/09/13 02:12:56;;;;;;;1.70;1.27;;;23.80;60.70;;;;;;6273263;28;20079;-72
2021/09/13 02:15:57;;;;;;;1.98;1.10;;;23.80;60.70;;;;;;6255019;28;20379;-71
2021/09/13 02:18:57;;;;;;;1.80;1.10;;;23.80;60.70;;;;;;6254934;28;20371;-72
2021/09/13 02:21:58;;;;;;;1.77;1.17;;;23.80;60.70;;;;;;6255131;28;20108;-72
2021/09/13 02:24:58;;;;;;;2.05;1.20;;;23.80;60.70;;;;;;6255253;28;20032;-72
2021/09/13 02:27:59;;;;;;;1.33;1.05;;;23.80;60.70;;;;;;6255060;28;20029;-72
2021/09/13 02:30:59;;;;;;;1.10;1.00;;;23.80;60.70;;;;;;6246341;28;20025;-72
2021/09/13 02:34:00;;;;;;;1.63;1.10;;;23.80;60.70;;;;;;6248194;28;20028;-72
2021/09/13 02:37:00;;;;;;;1.30;0.90;;;23.80;60.70;;;;;;6255238;28;20499;-72
2021/09/13 02:40:03;;;;;;;1.23;1.10;;;23.80;60.70;;;;;;6251768;28;20471;-72
2021/09/13 02:43:04;;;;;;;0.85;0.75;;;23.80;60.70;;;;;;6250937;28;20545;-72
2021/09/13 02:46:05;;;;;;;1.60;0.90;;;23.80;60.70;;;;;;6250628;28;20117;-72
2021/09/13 02:49:05;;;;;;;1.35;1.00;;;23.80;60.80;;;;;;6268936;28;20021;-72
2021/09/13 02:52:06;;;;;;;1.23;0.90;;;23.80;60.70;;;;;;6268291;28;20072;-72
2021/09/13 02:55:07;;;;;;;1.25;0.90;;;23.80;60.70;;;;;;6250530;28;20027;-71
2021/09/13 02:58:08;;;;;;;1.48;1.00;;;23.80;60.70;;;;;;6250511;28;20029;-72
2021/09/13 03:01:09;;;;;;;0.95;0.90;;;23.80;60.70;;;;;;6250411;28;20501;-72
2021/09/13 03:04:09;;;;;;;1.50;1.00;;;23.80;60.70;;;;;;6268681;28;20092;-72
2021/09/13 03:07:13;;;;;;;0.90;0.80;;;23.80;60.70;;;;;;6268826;28;20035;-72
2021/09/13 03:10:13;;;;;;;1.45;0.95;;;23.80;60.70;;;;;;6250322;28;20064;-72
2021/09/13 03:13:14;;;;;;;1.58;0.98;;;23.80;60.70;;;;;;6250768;28;20052;-72
2021/09/13 03:16:15;;;;;;;1.17;1.00;;;23.80;60.70;;;;;;6250329;28;20029;-72
2021/09/13 03:19:15;;;;;;;1.55;1.00;;;23.80;60.70;;;;;;6268315;28;20033;-72
2021/09/13 03:22:16;;;;;;;0.80;0.80;;;23.80;60.70;;;;;;6241969;28;20083;-72
2021/09/13 03:25:16;;;;;;;1.38;1.00;;;23.80;60.70;;;;;;6254999;28;20446;-72
2021/09/13 03:28:17;;;;;;;1.02;0.70;;;23.80;60.70;;;;;;6250195;28;20446;-71
2021/09/13 03:31:17;;;;;;;0.82;0.80;;;23.80;60.70;;;;;;6241932;28;20041;-72
2021/09/13 03:34:19;;;;;;;1.63;1.00;;;23.80;60.60;;;;;;6241543;28;20381;-72
2021/09/13 03:37:20;;;;;;;0.88;0.75;;;23.80;60.60;;;;;;6260087;28;20029;-72
2021/09/13 03:40:21;;;;;;;0.93;0.85;;;23.80;60.70;;;;;;6249704;28;20536;-72
2021/09/13 03:43:22;;;;;;;0.98;0.75;;;23.80;60.60;;;;;;6249975;28;20029;-72
2021/09/13 03:46:23;;;;;;;1.23;0.90;;;23.80;60.60;;;;;;6267642;28;20111;-72
2021/09/13 03:49:23;;;;;;;1.25;0.88;;;23.80;60.70;;;;;;6249993;28;20037;-72
2021/09/13 03:52:24;;;;;;;0.85;0.60;;;23.80;60.70;;;;;;6249019;28;20029;-72
2021/09/13 03:55:24;;;;;;;0.98;0.70;;;23.80;60.70;;;;;;6249315;28;20040;-72
2021/09/13 03:58:25;;;;;;;0.88;0.70;;;23.80;60.60;;;;;;6267284;28;20033;-72
2021/09/13 04:01:26;;;;;;;0.93;0.82;;;23.80;60.60;;;;;;6249061;28;20029;-72
2021/09/13 04:04:28;;;;;;;1.50;0.70;;;23.80;60.70;;;;;;6249227;28;20020;-72
2021/09/13 04:07:37;;;;;;;0.80;0.70;;;23.80;60.70;;;;;;6266906;28;20048;-72
2021/09/13 04:13:41;;;;;;;1.00;0.80;;;23.80;60.70;;;;;;6267083;28;20021;-72
2021/09/13 04:16:43;;;;;;;0.93;0.80;;;23.80;60.60;;;;;;6249076;28;20029;-72
2021/09/13 04:19:43;;;;;;;0.70;0.70;;;23.80;60.60;;;;;;6267236;28;20071;-72
2021/09/13 04:22:44;;;;;;;1.77;0.98;;;23.80;60.60;;;;;;6267304;28;20021;-72
2021/09/13 04:25:44;;;;;;;1.00;0.70;;;23.80;60.60;;;;;;6266776;28;20027;-72
2021/09/13 04:28:45;;;;;;;0.88;0.77;;;23.80;60.60;;;;;;6248704;28;20027;-72
2021/09/13 04:31:45;;;;;;;1.00;0.70;;;23.80;60.60;;;;;;6248391;28;20040;-72
2021/09/13 04:34:46;;;;;;;0.80;0.70;;;23.80;60.60;;;;;;6248818;28;20075;-72
2021/09/13 04:37:46;;;;;;;1.00;0.85;;;23.80;60.60;;;;;;6266232;28;20025;-73
2021/09/13 04:40:47;;;;;;;0.75;0.60;;;23.80;60.60;;;;;;6248176;28;20469;-72
2021/09/13 04:43:47;;;;;;;0.80;0.77;;;23.80;60.60;;;;;;6259312;28;20017;-72
2021/09/13 04:46:48;;;;;;;0.70;0.70;;;23.80;60.60;;;;;;6249310;28;20461;-72
2021/09/13 04:49:49;;;;;;;1.45;0.75;;;23.80;60.60;;;;;;6266276;28;20025;-72
2021/09/13 04:52:49;;;;;;;1.00;0.60;;;23.80;60.60;;;;;;6242086;28;20056;-72
2021/09/13 04:55:50;;;;;;;0.80;0.75;;;23.80;60.60;;;;;;6248354;28;20641;-72
2021/09/13 04:58:51;;;;;;;1.10;0.60;;;23.80;60.60;;;;;;6248513;28;20475;-72
2021/09/13 05:01:51;;;;;;;0.70;0.60;;;23.80;60.60;;;;;;6246296;28;20025;-72
2021/09/13 05:04:54;;;;;;;0.90;0.70;;;23.80;60.60;;;;;;6188386;28;20038;-72
2021/09/13 05:07:55;;;;;;;0.98;0.90;;;23.80;60.60;;;;;;6188778;28;20037;-71
2021/09/13 05:10:56;;;;;;;0.60;0.60;;;23.80;60.60;;;;;;6186443;28;20496;-72
2021/09/13 05:13:57;;;;;;;0.68;0.60;;;23.80;60.60;;;;;;6169139;28;20034;-72
2021/09/13 05:16:57;;;;;;;0.95;0.73;;;23.80;60.60;;;;;;6189119;28;20034;-73
2021/09/13 05:19:58;;;;;;;3.25;0.60;;;23.80;60.90;;;;;;6188852;28;20042;-72
2021/09/13 05:22:58;;;;;;;0.70;0.60;;;23.80;60.60;;;;;;6188962;28;20027;-72
2021/09/13 05:25:59;;;;;;;0.70;0.60;;;23.80;60.60;;;;;;6189134;28;20031;-72
2021/09/13 05:29:00;;;;;;;0.60;0.60;;;23.80;61.40;;;;;;6188546;28;20034;-72
2021/09/13 05:32:00;;;;;;;1.42;0.77;;;23.80;60.50;;;;;;6172669;28;20019;-72
2021/09/13 05:35:01;;;;;;;1.52;0.80;;;23.80;60.60;;;;;;6196871;28;20482;-72
2021/09/13 05:38:02;;;;;;;0.75;0.63;;;23.80;60.60;;;;;;6248110;28;20029;-72
2021/09/13 05:41:04;;;;;;;0.50;0.50;;;23.80;60.60;;;;;;6265322;28;20045;-72
2021/09/13 05:44:05;;;;;;;0.65;0.63;;;23.80;60.60;;;;;;6242876;28;20451;-72
2021/09/13 05:47:06;;;;;;;0.73;0.70;;;23.80;60.50;;;;;;6247689;28;20029;-72
2021/09/13 05:50:07;;;;;;;0.80;0.52;;;23.80;60.60;;;;;;6265411;28;20052;-72
2021/09/13 05:53:07;;;;;;;0.85;0.63;;;23.80;60.40;;;;;;6248431;28;20033;-72
2021/09/13 05:56:08;;;;;;;1.25;0.60;;;23.80;60.40;;;;;;6265729;28;20039;-72
2021/09/13 05:59:08;;;;;;;0.80;0.70;;;23.80;60.40;;;;;;6246336;28;20422;-72
2021/09/13 06:02:10;;;;;;;0.93;0.70;;;23.80;60.40;;;;;;6240539;28;20112;-72
2021/09/13 06:05:11;;;;;;;0.70;0.52;;;23.80;60.40;;;;;;6236587;28;20510;-72
2021/09/13 06:08:11;;;;;;;0.82;0.70;;;23.80;60.40;;;;;;6268527;28;20044;-72
2021/09/13 06:11:12;;;;;;;0.60;0.60;;;23.80;60.40;;;;;;6267907;28;20037;-72
2021/09/13 06:14:13;;;;;;;1.15;0.90;;;23.80;60.40;;;;;;6270287;28;20040;-72
2021/09/13 06:17:15;;;;;;;0.70;0.60;;;23.80;60.40;;;;;;6255234;28;20059;-72
2021/09/13 06:20:16;;;;;;;1.00;0.77;;;23.80;60.50;;;;;;6255057;28;20029;-72
2021/09/13 06:23:16;;;;;;;0.57;0.57;;;23.80;60.40;;;;;;6273619;28;20017;-72
2021/09/13 06:26:17;;;;;;;0.90;0.68;;;23.80;60.40;;;;;;6265575;28;20061;-72
2021/09/13 06:29:18;;;;;;;0.57;0.57;;;23.80;60.50;;;;;;6254350;28;20059;-73
2021/09/13 06:32:18;;;;;;;0.77;0.55;;;23.80;60.40;;;;;;6255084;28;20029;-72
2021/09/13 06:35:19;;;;;;;0.95;0.60;;;23.80;60.40;;;;;;6254064;28;20064;-73
2021/09/13 06:38:19;;;;;;;0.82;0.70;;;23.80;60.40;;;;;;6272174;28;20099;-72
2021/09/13 06:41:20;;;;;;;1.35;0.80;;;23.80;60.40;;;;;;6253997;28;20056;-72
2021/09/13 06:44:24;;;;;;;0.65;0.60;;;23.80;60.40;;;;;;6254763;28;20025;-72
2021/09/13 06:50:32;;;;;;;0.60;0.47;;;23.80;60.40;;;;;;6256130;28;20027;-72
2021/09/13 06:53:33;;;;;;;0.50;0.50;;;23.80;60.40;;;;;;6254177;28;20025;-72
2021/09/13 06:56:34;;;;;;;0.85;0.50;;;23.80;60.40;;;;;;6271259;28;20386;-72
2021/09/13 06:59:34;;;;;;;0.63;0.55;;;23.80;60.40;;;;;;6271934;28;20501;-72
2021/09/13 07:02:40;;;;;;;0.73;0.60;;;23.80;60.40;;;;;;6251318;28;20025;-72
2021/09/13 07:05:41;;;;;;;0.63;0.60;;;23.80;60.50;;;;;;6253580;28;20111;-72
2021/09/13 07:08:41;;;;;;;0.75;0.60;;;23.80;60.40;;;;;;6271334;28;20389;-72
2021/09/13 07:11:42;;;;;;;0.77;0.60;;;23.80;60.40;;;;;;6253388;28;20067;-73
2021/09/13 07:14:45;;;;;;;0.60;0.60;;;23.80;60.40;;;;;;6266570;28;20029;-72
2021/09/13 07:17:45;;;;;;;1.27;0.80;;;23.80;60.40;;;;;;6252213;28;20029;-72
2021/09/13 07:20:46;;;;;;;0.77;0.50;;;23.80;60.40;;;;;;6270423;28;20465;-72
2021/09/13 07:23:46;;;;;;;0.88;0.60;;;23.80;60.40;;;;;;6253373;28;20033;-72
2021/09/13 07:26:50;;;;;;;0.63;0.60;;;23.80;60.40;;;;;;6249760;28;20053;-73
2021/09/13 07:29:50;;;;;;;0.80;0.60;;;23.80;60.40;;;;;;6253848;28;20025;-72
2021/09/13 07:32:51;;;;;;;1.05;0.70;;;23.80;60.40;;;;;;6270636;28;20059;-72
2021/09/13 07:35:52;;;;;;;0.75;0.45;;;23.80;60.40;;;;;;6270823;28;20049;-72
2021/09/13 07:38:52;;;;;;;0.73;0.55;;;23.80;60.40;;;;;;6270935;28;20032;-73
2021/09/13 07:41:53;;;;;;;0.77;0.52;;;23.80;60.40;;;;;;6251934;28;20126;-72
2021/09/13 07:44:55;;;;;;;0.68;0.47;;;23.80;60.40;;;;;;6252499;28;20056;-73
2021/09/13 07:47:57;;;;;;;1.25;0.50;;;23.80;60.40;;;;;;6270707;28;20025;-72
2021/09/13 07:50:57;;;;;;;0.70;0.60;;;23.80;60.40;;;;;;6252977;28;20099;-73
2021/09/13 07:53:58;;;;;;;0.73;0.70;;;23.80;60.40;;;;;;6246866;28;20045;-72
2021/09/13 07:56:58;;;;;;;0.50;0.50;;;23.80;60.40;;;;;;6252354;28;20036;-73
2021/09/13 07:59:59;;;;;;;0.88;0.60;;;23.80;60.40;;;;;;6270474;28;20032;-72
2021/09/13 08:02:59;;;;;;;0.50;0.50;;;23.80;60.40;;;;;;6269698;28;20065;-72
2021/09/13 08:06:00;;;;;;;0.60;0.57;;;23.80;60.40;;;;;;6252318;28;20133;-73
2021/09/13 08:09:00;;;;;;;0.70;0.60;;;23.80;60.40;;;;;;6270028;28;20052;-73
2021/09/13 08:12:01;;;;;;;0.93;0.55;;;23.80;60.40;;;;;;6254266;28;20021;-74
2021/09/13 08:15:02;;;;;;;1.00;0.55;;;23.80;60.30;;;;;;6253849;28;20021;-72
2021/09/13 08:18:03;;;;;;;0.40;0.40;;;23.80;60.40;;;;;;6271827;28;20104;-72
2021/09/13 08:21:04;;;;;;;0.95;0.55;;;23.80;60.40;;;;;;6270271;28;20108;-73
2021/09/13 08:24:07;;;;;;;0.93;0.60;;;23.80;60.40;;;;;;6271800;28;20028;-72
2021/09/13 08:27:07;;;;;;;0.70;0.60;;;23.80;60.30;;;;;;6252539;28;20025;-71
2021/09/13 08:30:08;;;;;;;0.50;0.50;;;23.80;60.40;;;;;;6271764;28;20036;-72
2021/09/13 08:33:09;;;;;;;0.55;0.40;;;23.80;60.30;;;;;;6253188;28;20024;-74
2021/09/13 08:36:10;;;;;;;1.10;0.50;;;23.80;60.40;;;;;;6252732;28;20470;-74
2021/09/13 08:39:13;;;;;;;0.60;0.43;;;23.80;60.30;;;;;;6267750;28;20047;-73
2021/09/13 08:42:14;;;;;;;0.65;0.40;;;23.80;60.40;;;;;;6252041;28;20159;-71
2021/09/13 08:45:21;;;;;;;0.40;0.40;;;23.80;60.40;;;;;;6263899;28;20033;-71
2021/09/13 08:48:31;;;;;;;0.63;0.52;;;23.80;60.30;;;;;;6261482;28;20021;-72
2021/09/13 08:51:32;;;;;;;0.75;0.60;;;23.80;60.30;;;;;;6267944;28;20021;-71
2021/09/13 08:54:35;;;;;;;0.68;0.40;;;23.80;60.30;;;;;;6250266;28;20104;-72
2021/09/13 08:57:39;;;;;;;1.95;0.60;;;23.80;60.30;;;;;;6261820;28;20025;-71
2021/09/13 09:00:43;;;;;;;0.70;0.65;;;23.80;60.30;;;;;;6260496;28;20061;-71
2021/09/13 09:03:45;;;;;;;1.55;0.60;;;23.80;60.40;;;;;;6267326;28;20021;-72
2021/09/13 09:06:47;;;;;;;1.42;0.70;;;23.80;60.20;;;;;;6264626;28;20025;-73
2021/09/13 09:10:06;;;;;;;3.30;0.63;;;23.80;60.10;;;;;;6249654;28;20079;-73
2021/09/13 09:13:13;;;;;;;5.25;0.80;;;23.80;60.10;;;;;;6244698;28;20241;-73
2021/09/13 09:16:15;;;;;;;2.60;0.90;;;23.80;60.00;;;;;;6266032;28;20486;-74
2021/09/13 09:19:20;;;;;;;2.35;1.02;;;23.80;60.20;;;;;;6241293;28;20029;-72
2021/09/13 09:22:25;;;;;;;4.40;0.65;;;23.80;60.10;;;;;;6239769;28;20048;-73
2021/09/13 09:25:33;;;;;;;5.50;0.60;;;23.80;61.00;;;;;;6245554;28;20025;-73
2021/09/13 09:28:34;;;;;;;4.28;1.10;;;23.80;60.00;;;;;;6249439;28;20021;-73
2021/09/13 09:31:43;;;;;;;2.42;1.05;;;23.80;59.20;;;;;;6264029;28;20025;-71
2021/09/13 09:34:44;;;;;;;1.58;1.17;;;23.80;58.50;;;;;;6268907;28;20032;-71
2021/09/13 09:37:45;;;;;;;5.82;1.10;;;23.80;58.40;;;;;;6251390;28;20029;-72
2021/09/13 09:40:45;;;;;;;1.98;0.80;;;23.80;59.30;;;;;;6268469;28;20124;-71
2021/09/13 09:43:56;;;;;;;2.67;0.85;;;23.80;59.00;;;;;;6268872;28;20019;-71
2021/09/13 09:47:13;;;;;;;1.20;0.80;;;23.80;59.00;;;;;;6268881;28;20096;-72
2021/09/13 09:50:28;;;;;;;1.25;0.80;;;23.80;59.30;;;;;;6272761;28;20385;-71
2021/09/13 09:53:39;;;;;;;1.65;1.00;;;23.80;59.40;;;;;;6274218;28;20025;-72
2021/09/13 09:56:45;;;;;;;1.85;0.80;;;23.80;59.50;;;;;;6274093;28;20017;-72
2021/09/13 09:59:46;;;;;;;1.27;1.00;;;23.80;59.60;;;;;;6256153;28;20032;-72
2021/09/13 10:02:46;;;;;;;1.60;0.73;;;23.80;59.60;;;;;;6254520;28;20123;-72
2021/09/13 10:05:48;;;;;;;0.80;0.70;;;23.80;59.70;;;;;;6249077;28;20120;-72
2021/09/13 10:08:48;;;;;;;0.90;0.70;;;23.80;59.70;;;;;;6274358;28;20029;-72
2021/09/13 10:11:53;;;;;;;1.15;0.93;;;23.80;59.70;;;;;;6256907;28;20036;-72
2021/09/13 10:14:54;;;;;;;1.48;0.68;;;23.80;59.70;;;;;;6273050;28;20017;-71
2021/09/13 10:17:55;;;;;;;1.88;0.80;;;23.80;59.70;;;;;;6274944;28;20079;-72
2021/09/13 10:20:56;;;;;;;1.42;0.57;;;23.80;59.70;;;;;;6270821;28;20022;-72
2021/09/13 10:23:57;;;;;;;1.52;0.77;;;23.80;59.70;;;;;;6274061;28;20560;-72
2021/09/13 10:27:11;;;;;;;1.13;0.70;;;23.80;59.70;;;;;;6273896;28;20051;-71
2021/09/13 10:30:24;;;;;;;1.27;0.60;;;23.80;59.80;;;;;;6271833;28;20021;-72
2021/09/13 10:33:24;;;;;;;1.38;0.70;;;23.80;59.80;;;;;;6271398;28;20025;-72
2021/09/13 10:37:03;;;;;;;1.25;0.80;;;23.80;59.80;;;;;;6252376;28;20028;-71
2021/09/13 10:40:16;;;;;;;2.17;0.77;;;23.80;59.80;;;;;;6254974;28;20037;-72
2021/09/13 10:43:20;;;;;;;0.95;0.65;;;23.80;59.80;;;;;;6273429;28;20359;-72
2021/09/13 10:46:59;;;;;;;0.47;0.47;;;23.80;59.80;;;;;;6246607;28;20025;-71
2021/09/13 10:50:22;;;;;;;1.15;0.80;;;23.80;59.80;;;;;;6235805;28;20071;-72
2021/09/13 10:53:23;;;;;;;0.80;0.68;;;23.80;59.80;;;;;;6254610;28;20021;-71
2021/09/13 10:56:24;;;;;;;1.10;0.82;;;23.80;59.80;;;;;;6255062;28;20032;-71
2021/09/13 10:59:44;;;;;;;0.82;0.60;;;23.80;59.80;;;;;;6272135;28;20036;-71
2021/09/13 11:03:04;;;;;;;0.85;0.70;;;23.80;60.60;;;;;;6272915;28;20045;-72
2021/09/13 11:06:14;;;;;;;0.68;0.68;;;23.80;59.90;;;;;;6249557;28;20168;-71
2021/09/13 11:09:18;;;;;;;1.20;0.80;;;23.80;59.80;;;;;;6248674;28;20367;-72
2021/09/13 11:12:20;;;;;;;1.00;0.70;;;23.80;59.80;;;;;;6267698;28;20021;-72
2021/09/13 11:15:21;;;;;;;0.70;0.70;;;23.80;59.80;;;;;;6254677;28;20288;-72
2021/09/13 11:18:35;;;;;;;0.90;0.70;;;23.80;59.80;;;;;;6251737;28;20075;-72
2021/09/13 11:21:39;;;;;;;0.80;0.70;;;23.80;59.80;;;;;;6269347;28;20094;-72
2021/09/13 11:24:40;;;;;;;0.63;0.60;;;23.80;59.90;;;;;;6255474;28;20061;-72
2021/09/13 11:27:40;;;;;;;1.00;0.70;;;23.80;59.80;;;;;;6254537;28;20478;-72
2021/09/13 11:30:45;;;;;;;0.93;0.63;;;23.80;59.80;;;;;;6272421;28;20098;-72
2021/09/13 11:33:45;;;;;;;0.60;0.57;;;23.80;59.90;;;;;;6272700;28;20068;-72
2021/09/13 11:37:05;;;;;;;0.73;0.60;;;23.80;59.80;;;;;;6230818;28;20585;-72
2021/09/13 11:40:07;;;;;;;0.93;0.65;;;23.80;59.80;;;;;;6228580;28;20351;-71
2021/09/13 11:43:09;;;;;;;1.10;0.60;;;23.80;59.80;;;;;;6259286;28;20501;-72
2021/09/13 11:46:09;;;;;;;0.90;0.77;;;23.80;59.90;;;;;;6251982;28;20486;-72
2021/09/13 11:49:14;;;;;;;1.10;0.45;;;23.80;59.90;;;;;;6252794;28;20032;-72
2021/09/13 11:52:29;;;;;;;0.68;0.68;;;23.80;59.90;;;;;;6251856;28;20025;-73
2021/09/13 11:55:30;;;;;;;1.30;0.70;;;23.80;59.90;;;;;;6247128;28;20406;-74
2021/09/13 11:58:30;;;;;;;0.40;0.40;;;23.80;59.90;;;;;;6267314;28;20017;-72
2021/09/13 12:01:31;;;;;;;0.50;0.50;;;23.80;59.90;;;;;;6251243;28;20067;-73
2021/09/13 12:04:35;;;;;;;0.80;0.55;;;23.80;59.90;;;;;;6249943;28;20036;-72
2021/09/13 12:07:35;;;;;;;1.10;0.80;;;23.80;59.90;;;;;;6262963;28;20025;-72
2021/09/13 12:10:37;;;;;;;0.82;0.60;;;23.80;59.90;;;;;;6247277;28;20061;-73
2021/09/13 12:13:38;;;;;;;0.47;0.47;;;23.80;59.90;;;;;;6267436;28;20254;-73
2021/09/13 12:16:58;;;;;;;0.88;0.60;;;23.80;59.90;;;;;;6269420;28;20056;-73
2021/09/13 12:20:29;;;;;;;0.55;0.52;;;23.80;59.90;;;;;;6251410;28;20395;-72
2021/09/13 12:23:32;;;;;;;0.65;0.50;;;23.80;59.90;;;;;;6251241;28;20013;-73
2021/09/13 12:26:32;;;;;;;1.35;0.50;;;23.80;59.90;;;;;;6251776;28;20111;-73
2021/09/13 12:29:53;;;;;;;0.75;0.55;;;23.80;59.90;;;;;;6251032;28;20398;-72
2021/09/13 12:33:01;;;;;;;0.60;0.60;;;23.80;59.90;;;;;;6232660;28;20032;-73
2021/09/13 12:36:17;;;;;;;0.50;0.50;;;23.80;59.90;;;;;;6259639;28;20563;-73
2021/09/13 12:39:17;;;;;;;1.40;0.43;;;23.80;60.00;;;;;;6251739;28;20094;-71
2021/09/13 12:42:27;;;;;;;0.70;0.45;;;23.80;59.90;;;;;;6251154;28;20049;-72
2021/09/13 12:45:31;;;;;;;0.75;0.52;;;23.80;59.90;;;;;;6249158;28;20041;-73
2021/09/13 12:48:34;;;;;;;0.98;0.57;;;23.80;59.90;;;;;;6269328;28;20025;-72
2021/09/13 12:51:35;;;;;;;0.82;0.55;;;23.80;59.90;;;;;;6250825;28;20032;-73
2021/09/13 12:54:37;;;;;;;0.65;0.50;;;23.80;59.90;;;;;;6247359;28;20071;-73
2021/09/13 12:57:38;;;;;;;0.40;0.40;;;23.80;59.90;;;;;;6251535;28;20124;-73
2021/09/13 13:00:38;;;;;;;1.00;0.52;;;23.80;59.90;;;;;;6245808;28;20025;-72
2021/09/13 13:03:39;;;;;;;0.60;0.50;;;23.80;60.00;;;;;;6269127;28;20111;-72
2021/09/13 13:06:42;;;;;;;0.50;0.50;;;23.80;59.90;;;;;;6248921;28;20523;-73
2021/09/13 13:09:43;;;;;;;0.50;0.50;;;23.80;59.90;;;;;;6250975;28;20074;-73
2021/09/13 13:12:44;;;;;;;0.95;0.55;;;23.80;59.90;;;;;;6242755;28;20087;-72
2021/09/13 13:15:45;;;;;;;0.70;0.57;;;23.80;59.90;;;;;;6247632;28;20030;-73
2021/09/13 13:18:46;;;;;;;0.50;0.47;;;23.80;59.90;;;;;;6250163;28;20039;-73
2021/09/13 13:21:48;;;;;;;0.90;0.50;;;23.80;59.90;;;;;;6246706;28;20021;-72
2021/09/13 13:24:48;;;;;;;0.38;0.38;;;23.80;59.90;;;;;;6246708;28;20029;-72
2021/09/13 13:27:50;;;;;;;0.43;0.43;;;23.80;59.90;;;;;;6242593;28;20452;-72
2021/09/13 13:30:51;;;;;;;1.17;0.50;;;23.80;59.90;;;;;;6230315;28;20447;-74
2021/09/13 13:33:52;;;;;;;0.82;0.50;;;23.80;60.00;;;;;;6251279;28;20040;-74
2021/09/13 13:36:53;;;;;;;0.50;0.50;;;23.80;60.00;;;;;;6245639;28;20021;-73
2021/09/13 13:39:53;;;;;;;1.08;0.50;;;23.80;60.10;;;;;;6244662;28;20156;-72
2021/09/13 13:42:54;;;;;;;0.40;0.40;;;23.70;60.20;;;;;;6267537;28;20064;-73
2021/09/13 13:45:54;;;;;;;1.23;0.90;;;23.60;59.80;;;;;;6267574;28;20490;-73
2021/09/13 13:48:55;;;;;;;1.08;0.82;;;23.60;58.70;;;;;;6241429;28;20120;-72
2021/09/13 13:51:57;;;;;;;2.72;0.85;;;23.60;59.40;;;;;;6253459;28;20028;-72
2021/09/13 13:54:57;;;;;;;1.52;0.60;;;23.60;59.60;;;;;;6249713;28;20021;-72
2021/09/13 13:57:58;;;;;;;2.80;1.20;;;23.60;59.30;;;;;;6267238;28;20071;-72
2021/09/13 14:00:59;;;;;;;2.72;0.93;;;23.60;59.10;;;;;;6240651;28;20021;-72
2021/09/13 14:04:01;;;;;;;1.40;0.85;;;23.60;59.40;;;;;;6273150;28;20378;-72
2021/09/13 14:07:02;;;;;;;1.15;0.80;;;23.60;59.50;;;;;;6261102;28;20110;-72
2021/09/13 14:10:05;;;;;;;4.68;1.00;;;23.60;59.00;;;;;;6266108;28;20498;-72
2021/09/13 14:13:06;;;;;;;5.40;0.95;;;23.50;57.90;;;;;;6265658;28;20406;-72
2021/09/13 14:16:07;;;;;;;2.38;1.00;;;23.60;58.20;;;;;;6245814;28;20029;-72
2021/09/13 14:19:07;;;;;;;1.90;1.10;;;23.60;57.80;;;;;;6239235;28;20415;-72
2021/09/13 14:22:08;;;;;;;3.88;1.10;;;23.60;57.90;;;;;;6253416;28;20115;-72
2021/09/13 14:25:09;;;;;;;4.20;1.13;;;23.60;56.50;;;;;;6247965;28;20116;-72
2021/09/13 14:28:10;;;;;;;2.45;1.20;;;23.60;57.50;;;;;;6265550;28;20021;-70
2021/09/13 14:31:10;;;;;;;3.88;1.10;;;23.60;57.50;;;;;;6247088;28;20029;-72
2021/09/13 14:34:11;;;;;;;4.57;1.63;;;23.50;57.10;;;;;;6245471;28;20025;-72
2021/09/13 14:37:12;;;;;;;5.75;1.30;;;23.60;56.60;;;;;;6257590;28;20033;-71
2021/09/13 14:40:13;;;;;;;1.45;1.00;;;23.50;58.60;;;;;;6252014;28;20044;-72
2021/09/13 14:43:13;;;;;;;2.25;1.00;;;23.50;58.50;;;;;;6265281;28;20033;-72
2021/09/13 14:46:14;;;;;;;1.98;0.98;;;23.50;58.30;;;;;;6263777;28;20028;-72
2021/09/13 14:49:18;;;;;;;3.33;1.20;;;23.50;58.10;;;;;;6247948;28;20225;-72
2021/09/13 14:52:21;;;;;;;4.40;1.30;;;23.50;58.40;;;;;;6252675;28;20032;-72
2021/09/13 14:55:22;;;;;;;3.97;1.30;;;23.50;58.50;;;;;;6250819;28;20040;-72
2021/09/13 14:58:23;;;;;;;3.10;1.30;;;23.50;58.20;;;;;;6266019;28;20033;-72
2021/09/13 15:01:24;;;;;;;3.13;1.30;;;23.50;57.30;;;;;;6262681;28;20100;-72
2021/09/13 15:04:25;;;;;;;4.18;1.08;;;23.50;57.10;;;;;;6262073;28;20044;-72
2021/09/13 15:07:26;;;;;;;1.88;1.15;;;23.50;57.00;;;;;;6250332;28;20017;-71
2021/09/13 15:10:26;;;;;;;7.30;1.02;;;23.60;57.00;;;;;;6252452;28;20025;-71
2021/09/13 15:13:27;;;;;;;2.53;1.00;;;23.60;56.60;;;;;;6251417;28;20025;-70
2021/09/13 15:16:28;;;;;;;4.32;1.40;;;23.60;56.80;;;;;;6252802;28;20063;-70
2021/09/13 15:19:28;;;;;;;6.68;1.15;;;23.60;57.00;;;;;;6269073;28;20031;-71
2021/09/13 15:22:30;;;;;;;4.88;1.20;;;23.60;57.00;;;;;;6248352;28;20086;-71
2021/09/13 15:25:30;;;;;;;5.70;1.30;;;23.60;57.00;;;;;;6264250;28;20353;-71
2021/09/13 15:28:31;;;;;;;3.60;1.02;;;23.60;57.10;;;;;;6266735;28;20482;-70
2021/09/13 15:31:31;;;;;;;4.18;0.98;;;23.60;57.20;;;;;;6266724;28;20025;-71
2021/09/13 15:34:32;;;;;;;2.33;1.17;;;23.60;57.30;;;;;;6244291;28;20021;-71
2021/09/13 15:37:32;;;;;;;3.78;0.90;;;23.60;57.50;;;;;;6245653;28;20436;-71
2021/09/13 15:40:33;;;;;;;5.45;1.08;;;23.60;57.50;;;;;;6246518;28;20450;-72
2021/09/13 15:43:34;;;;;;;2.33;1.15;;;23.60;57.60;;;;;;6265472;28;20021;-71
2021/09/13 15:46:34;;;;;;;2.63;0.90;;;23.60;57.70;;;;;;6267276;28;20025;-71
2021/09/13 15:49:35;;;;;;;2.47;0.88;;;23.70;57.80;;;;;;6261122;28;20056;-71
2021/09/13 15:52:37;;;;;;;2.33;0.80;;;23.70;58.00;;;;;;6268498;28;20025;-71
2021/09/13 15:55:38;;;;;;;1.35;0.85;;;23.60;57.80;;;;;;6269121;28;20067;-71